createdAt,value
2017-11-01T00:00:33.005Z,99546.14
2017-11-01T00:03:04.695Z,99544.34
2017-11-01T00:05:35.575Z,99552.03
2017-11-01T00:08:10.763Z,99546.84
2017-11-01T00:10:41.562Z,99549.44
2017-11-01T00:13:12.303Z,99539.95
2017-11-01T00:15:43.616Z,99537.84
2017-11-01T00:18:14.806Z,99532.05
2017-11-01T00:20:53.283Z,99540.12
2017-11-01T00:23:26.437Z,99541.22
2017-11-01T00:26:01.512Z,99533.27
2017-11-01T00:28:33.306Z,99545.48
2017-11-01T00:31:06.557Z,99542.35
2017-11-01T00:33:40.644Z,99548.80
2017-11-01T00:36:18.120Z,99542.35
2017-11-01T00:38:51.696Z,99541.84
2017-11-01T00:41:23.715Z,99530.84
2017-11-01T00:43:55.279Z,99527.03
2017-11-01T00:46:26.278Z,99532.90
2017-11-01T00:48:57.015Z,99524.28
2017-11-01T00:51:27.812Z,99518.98
2017-11-01T00:53:58.791Z,99517.00
2017-11-01T00:56:30.046Z,99523.86
2017-11-01T00:59:01.933Z,99514.81
2017-11-01T01:01:32.522Z,99511.45
2017-11-01T01:04:03.208Z,99500.67
2017-11-01T01:06:33.853Z,99502.61
2017-11-01T01:09:05.440Z,99499.97
2017-11-01T01:11:37.134Z,99502.84
2017-11-01T01:14:07.901Z,99503.42
2017-11-01T01:16:39.731Z,99507.67
2017-11-01T01:19:10.999Z,99503.70
2017-11-01T01:21:41.757Z,99503.21
2017-11-01T01:24:15.306Z,99501.53
2017-11-01T01:26:49.175Z,99502.33
2017-11-01T01:29:21.238Z,99490.94
2017-11-01T01:31:53.767Z,99493.69
2017-11-01T01:34:26.469Z,99490.94
2017-11-01T01:36:57.611Z,99490.83
2017-11-01T01:39:28.964Z,99487.17
2017-11-01T01:42:02.639Z,99482.89
2017-11-01T01:44:34.073Z,99478.97
2017-11-01T01:47:10.620Z,99482.64
2017-11-01T01:49:41.782Z,99471.47
2017-11-01T01:52:12.533Z,99466.57
2017-11-01T01:54:43.915Z,99468.08
2017-11-01T01:57:14.599Z,99466.16
2017-11-01T01:59:49.173Z,99466.48
2017-11-01T02:02:20.649Z,99460.39
2017-11-01T02:04:53.468Z,99450.86
2017-11-01T02:07:24.600Z,99453.61
2017-11-01T02:09:55.483Z,99446.89
2017-11-01T02:12:28.164Z,99452.82
2017-11-01T02:15:00.198Z,99449.33
2017-11-01T02:17:30.840Z,99450.33
2017-11-01T02:20:04.074Z,99441.98
2017-11-01T02:22:35.483Z,99444.08
2017-11-01T02:25:08.850Z,99444.79
2017-11-01T02:27:40.269Z,99437.37
2017-11-01T02:30:11.117Z,99428.42
2017-11-01T02:32:43.029Z,99429.57
2017-11-01T02:35:14.567Z,99434.09
2017-11-01T02:37:45.173Z,99430.49
2017-11-01T02:40:16.438Z,99428.00
2017-11-01T02:42:49.362Z,99425.25
2017-11-01T02:45:21.662Z,99432.38
2017-11-01T02:47:53.190Z,99427.77
2017-11-01T02:50:23.864Z,99429.25
2017-11-01T02:52:55.032Z,99432.01
2017-11-01T02:55:26.300Z,99425.34
2017-11-01T02:57:58.854Z,99433.02
2017-11-01T03:00:32.505Z,99423.80
2017-11-01T03:03:03.400Z,99424.44
2017-11-01T03:05:34.107Z,99419.88
2017-11-01T03:08:05.363Z,99415.06
2017-11-01T03:10:36.228Z,99419.03
2017-11-01T03:13:07.621Z,99419.23
2017-11-01T03:15:38.695Z,99417.42
2017-11-01T03:18:09.390Z,99419.65
2017-11-01T03:20:40.693Z,99415.20
2017-11-01T03:23:11.591Z,99413.55
2017-11-01T03:25:43.348Z,99414.95
2017-11-01T03:28:14.592Z,99415.78
2017-11-01T03:30:49.332Z,99413.03
2017-11-01T03:33:20.109Z,99415.78
2017-11-01T03:35:53.677Z,99413.37
2017-11-01T03:38:26.479Z,99404.08
2017-11-01T03:40:57.754Z,99409.34
2017-11-01T03:43:29.141Z,99404.71
2017-11-01T03:46:02.924Z,99406.98
2017-11-01T03:48:36.087Z,99406.27
2017-11-01T03:51:07.854Z,99399.28
2017-11-01T03:53:39.294Z,99395.36
2017-11-01T03:56:10.843Z,99395.87
2017-11-01T03:58:48.550Z,99381.73
2017-11-01T04:01:19.234Z,99381.78
2017-11-01T04:03:55.600Z,99379.20
2017-11-01T04:06:27.926Z,99372.83
2017-11-01T04:08:59.913Z,99370.34
2017-11-01T04:11:30.643Z,99368.61
2017-11-01T04:14:01.723Z,99373.41
2017-11-01T04:16:33.437Z,99372.14
2017-11-01T04:19:09.560Z,99370.84
2017-11-01T04:21:42.258Z,99373.28
2017-11-01T04:24:13.809Z,99376.24
2017-11-01T04:26:44.405Z,99374.58
2017-11-01T04:29:15.552Z,99371.34
2017-11-01T04:31:49.618Z,99369.92
2017-11-01T04:34:21.034Z,99382.16
2017-11-01T04:36:57.846Z,99376.12
2017-11-01T04:39:30.564Z,99374.79
2017-11-01T04:42:01.990Z,99373.89
2017-11-01T04:44:34.510Z,99382.17
2017-11-01T04:47:05.443Z,99373.97
2017-11-01T04:49:38.652Z,99373.17
2017-11-01T04:52:10.271Z,99378.52
2017-11-01T04:54:41.502Z,99373.48
2017-11-01T04:57:13.114Z,99371.80
2017-11-01T04:59:48.273Z,99378.13
2017-11-01T05:02:26.671Z,99372.09
2017-11-01T05:04:58.491Z,99377.02
2017-11-01T05:07:30.040Z,99372.77
2017-11-01T05:10:01.230Z,99379.45
2017-11-01T05:12:31.750Z,99379.45
2017-11-01T05:15:02.368Z,99383.79
2017-11-01T05:17:33.374Z,99367.59
2017-11-01T05:20:04.766Z,99368.91
2017-11-01T05:22:39.987Z,99363.98
2017-11-01T05:25:17.384Z,99365.84
2017-11-01T05:27:54.140Z,99363.67
2017-11-01T05:30:26.106Z,99367.84
2017-11-01T05:33:01.225Z,99370.50
2017-11-01T05:35:32.276Z,99373.56
2017-11-01T05:38:10.872Z,99371.50
2017-11-01T05:40:41.722Z,99373.20
2017-11-01T05:43:12.775Z,99372.54
2017-11-01T05:45:50.585Z,99371.98
2017-11-01T05:48:21.613Z,99370.97
2017-11-01T05:50:53.614Z,99372.12
2017-11-01T05:53:24.510Z,99372.24
2017-11-01T05:56:06.785Z,99374.77
2017-11-01T05:58:37.967Z,99379.11
2017-11-01T06:01:10.426Z,99376.30
2017-11-01T06:06:19.285Z,99373.54
2017-11-01T06:08:52.576Z,99369.78
2017-11-01T06:11:23.219Z,99371.95
2017-11-01T06:13:54.817Z,99369.41
2017-11-01T06:16:25.470Z,99374.66
2017-11-01T06:18:56.079Z,99379.73
2017-11-01T06:21:26.739Z,99377.99
2017-11-01T06:24:00.419Z,99378.55
2017-11-01T06:26:32.203Z,99388.05
2017-11-01T06:29:03.107Z,99392.32
2017-11-01T06:31:34.626Z,99394.02
2017-11-01T06:34:07.600Z,99395.55
2017-11-01T06:36:38.654Z,99391.50
2017-11-01T06:39:09.465Z,99392.16
2017-11-01T06:41:41.495Z,99390.70
2017-11-01T06:44:12.277Z,99398.75
2017-11-01T06:46:45.028Z,99402.41
2017-11-01T06:49:16.970Z,99403.81
2017-11-01T06:51:50.263Z,99401.91
2017-11-01T06:54:23.810Z,99403.70
2017-11-01T06:56:54.975Z,99408.20
2017-11-01T06:59:25.529Z,99417.27
2017-11-01T07:01:56.169Z,99413.42
2017-11-01T07:04:29.479Z,99414.45
2017-11-01T07:07:03.235Z,99415.78
2017-11-01T07:09:51.791Z,99411.57
2017-11-01T07:12:22.623Z,99409.19
2017-11-01T07:14:54.063Z,99414.32
2017-11-01T07:17:25.366Z,99418.30
2017-11-01T07:19:56.254Z,99421.47
2017-11-01T07:22:27.862Z,99413.71
2017-11-01T07:25:03.880Z,99414.50
2017-11-01T07:27:38.197Z,99422.23
2017-11-01T07:30:14.069Z,99418.13
2017-11-01T07:32:55.051Z,99416.95
2017-11-01T07:35:35.001Z,99413.03
2017-11-01T07:40:44.448Z,99410.52
2017-11-01T07:43:16.071Z,99411.73
2017-11-01T07:45:46.536Z,99417.56
2017-11-01T07:48:17.672Z,99417.98
2017-11-01T07:50:50.368Z,99420.77
2017-11-01T07:53:21.475Z,99417.19
2017-11-01T07:55:53.524Z,99420.05
2017-11-01T07:58:24.552Z,99428.72
2017-11-01T08:00:55.939Z,99428.37
2017-11-01T08:03:33.024Z,99427.47
2017-11-01T08:06:08.536Z,99425.52
2017-11-01T08:08:42.484Z,99430.14
2017-11-01T08:11:13.244Z,99427.66
2017-11-01T08:13:47.732Z,99428.33
2017-11-01T08:16:22.938Z,99436.66
2017-11-01T08:18:58.690Z,99436.66
2017-11-01T08:21:33.216Z,99438.30
2017-11-01T08:24:06.618Z,99427.98
2017-11-01T08:26:39.427Z,99431.48
2017-11-01T08:29:11.984Z,99429.63
2017-11-01T08:31:42.892Z,99442.13
2017-11-01T08:34:14.797Z,99440.91
2017-11-01T08:36:47.218Z,99443.34
2017-11-01T08:39:18.449Z,99440.58
2017-11-01T08:41:52.738Z,99440.97
2017-11-01T08:44:26.948Z,99443.98
2017-11-01T08:46:58.863Z,99442.92
2017-11-01T08:49:29.931Z,99444.41
2017-11-01T08:52:03.008Z,99452.75
2017-11-01T08:54:33.810Z,99446.59
2017-11-01T08:57:06.340Z,99446.77
2017-11-01T08:59:39.076Z,99453.13
2017-11-01T09:02:09.967Z,99448.50
2017-11-01T09:04:42.022Z,99457.78
2017-11-01T09:07:13.016Z,99454.28
2017-11-01T09:09:50.217Z,99461.77
2017-11-01T09:12:21.025Z,99469.59
2017-11-01T09:14:54.503Z,99466.94
2017-11-01T09:17:27.213Z,99467.79
2017-11-01T09:19:58.598Z,99466.13
2017-11-01T09:22:29.626Z,99463.17
2017-11-01T09:25:00.465Z,99461.67
2017-11-01T09:27:31.130Z,99465.52
2017-11-01T09:30:05.025Z,99469.73
2017-11-01T09:32:35.838Z,99460.03
2017-11-01T09:35:10.696Z,99456.42
2017-11-01T09:37:41.632Z,99467.34
2017-11-01T09:40:12.429Z,99469.58
2017-11-01T09:42:44.447Z,99468.88
2017-11-01T09:45:15.359Z,99472.23
2017-11-01T09:47:48.301Z,99473.14
2017-11-01T09:50:19.616Z,99475.74
2017-11-01T09:52:52.759Z,99475.40
2017-11-01T09:55:23.986Z,99466.28
2017-11-01T09:57:55.182Z,99463.81
2017-11-01T10:00:27.064Z,99471.22
2017-11-01T10:02:58.684Z,99467.97
2017-11-01T10:05:30.943Z,99461.89
2017-11-01T10:08:02.649Z,99459.45
2017-11-01T10:10:33.357Z,99459.30
2017-11-01T10:13:04.087Z,99454.52
2017-11-01T10:15:35.380Z,99453.19
2017-11-01T10:18:06.624Z,99451.48
2017-11-01T10:20:37.867Z,99452.45
2017-11-01T10:23:09.436Z,99443.34
2017-11-01T10:25:40.651Z,99426.55
2017-11-01T10:28:11.450Z,99421.83
2017-11-01T10:30:42.302Z,99418.75
2017-11-01T10:33:13.126Z,99409.07
2017-11-01T10:35:44.170Z,99410.31
2017-11-01T10:38:15.479Z,99410.47
2017-11-01T10:40:48.313Z,99417.70
2017-11-01T10:43:19.830Z,99422.20
2017-11-01T10:45:52.613Z,99413.98
2017-11-01T10:48:23.275Z,99413.31
2017-11-01T10:50:54.586Z,99413.31
2017-11-01T10:53:25.294Z,99421.55
2017-11-01T10:55:56.279Z,99415.53
2017-11-01T10:58:27.236Z,99416.52
2017-11-01T11:00:58.744Z,99417.56
2017-11-01T11:03:30.593Z,99427.06
2017-11-01T11:06:02.711Z,99420.80
2017-11-01T11:08:33.675Z,99418.95
2017-11-01T11:11:06.306Z,99424.28
2017-11-01T11:13:37.668Z,99427.63
2017-11-01T11:16:10.538Z,99429.23
2017-11-01T11:18:42.244Z,99429.94
2017-11-01T11:21:13.087Z,99428.58
2017-11-01T11:23:44.226Z,99428.33
2017-11-01T11:26:15.375Z,99429.50
2017-11-01T11:28:50.097Z,99427.16
2017-11-01T11:31:21.102Z,99415.48
2017-11-01T11:33:53.587Z,99412.64
2017-11-01T11:36:24.146Z,99417.80
2017-11-01T11:38:54.929Z,99407.53
2017-11-01T11:41:25.940Z,99403.33
2017-11-01T11:43:57.292Z,99417.97
2017-11-01T11:46:28.697Z,99409.52
2017-11-01T11:49:00.980Z,99406.16
2017-11-01T11:51:32.932Z,99399.23
2017-11-01T11:54:05.018Z,99393.80
2017-11-01T11:56:35.958Z,99390.09
2017-11-01T11:59:08.281Z,99385.69
2017-11-01T12:01:39.606Z,99385.89
2017-11-01T12:04:10.911Z,99380.20
2017-11-01T12:06:42.170Z,99377.14
2017-11-01T12:09:21.297Z,99379.36
2017-11-01T12:11:55.247Z,99372.28
2017-11-01T12:14:56.048Z,99375.06
2017-11-01T12:18:04.722Z,99371.98
2017-11-01T12:21:20.910Z,99361.11
2017-11-01T12:29:53.408Z,99350.50
2017-11-01T12:32:31.892Z,99347.66
2017-11-01T12:35:18.885Z,99353.53
2017-11-01T12:38:04.661Z,99349.77
2017-11-01T12:40:38.683Z,99342.88
2017-11-01T12:43:43.081Z,99348.92
2017-11-01T12:46:20.294Z,99332.23
2017-11-01T12:48:58.364Z,99332.10
2017-11-01T12:51:33.362Z,99334.98
2017-11-01T12:54:33.957Z,99339.67
2017-11-01T12:57:06.965Z,99340.47
2017-11-01T12:59:43.819Z,99343.22
2017-11-01T13:02:21.223Z,99336.77
2017-11-01T13:04:59.735Z,99337.47
2017-11-01T13:07:32.330Z,99337.61
2017-11-01T13:10:16.118Z,99339.78
2017-11-01T13:12:53.077Z,99334.88
2017-11-01T13:15:32.891Z,99339.60
2017-11-01T13:18:10.509Z,99338.56
2017-11-01T13:20:42.315Z,99330.64
2017-11-01T13:23:15.074Z,99335.59
2017-11-01T13:25:52.547Z,99336.70
2017-11-01T13:31:56.532Z,99325.74
2017-11-01T13:34:28.714Z,99321.98
2017-11-01T13:37:02.548Z,99323.16
2017-11-01T13:39:42.448Z,99324.64
2017-11-01T13:42:30.914Z,99322.33
2017-11-01T13:48:09.388Z,99329.91
2017-11-01T13:50:42.197Z,99331.52
2017-11-01T13:53:14.064Z,99326.65
2017-11-01T13:55:45.163Z,99326.45
2017-11-01T13:58:17.034Z,99324.22
2017-11-01T14:00:51.350Z,99327.51
2017-11-01T14:03:22.429Z,99319.66
2017-11-01T14:05:54.047Z,99315.25
2017-11-01T14:08:24.967Z,99304.70
2017-11-01T14:10:57.264Z,99313.55
2017-11-01T14:13:28.627Z,99303.27
2017-11-01T14:15:59.559Z,99301.78
2017-11-01T14:18:33.166Z,99305.07
2017-11-01T14:21:05.299Z,99308.37
2017-11-01T14:23:39.000Z,99315.40
2017-11-01T14:26:12.315Z,99310.75
2017-11-01T14:28:47.092Z,99310.67
2017-11-01T14:31:19.860Z,99301.65
2017-11-01T14:33:55.646Z,99303.09
2017-11-01T14:36:27.841Z,99301.91
2017-11-01T14:39:00.143Z,99288.03
2017-11-01T14:41:32.080Z,99286.57
2017-11-01T14:44:04.729Z,99293.98
2017-11-01T14:46:36.835Z,99292.64
2017-11-01T14:49:09.090Z,99289.23
2017-11-01T14:51:41.524Z,99294.27
2017-11-01T14:54:14.227Z,99282.08
2017-11-01T14:56:46.538Z,99276.66
2017-11-01T14:59:21.019Z,99268.41
2017-11-01T15:01:58.896Z,99286.50
2017-11-01T15:04:30.547Z,99276.97
2017-11-01T15:07:03.180Z,99272.42
2017-11-01T15:09:35.837Z,99274.45
2017-11-01T15:12:07.719Z,99271.84
2017-11-01T15:14:40.580Z,99265.53
2017-11-01T15:17:25.038Z,99258.24
2017-11-01T15:20:06.345Z,99256.63
2017-11-01T15:22:39.717Z,99262.27
2017-11-01T15:25:11.242Z,99263.47
2017-11-01T15:27:50.331Z,99257.02
2017-11-01T15:30:31.778Z,99264.64
2017-11-01T15:33:07.423Z,99266.23
2017-11-01T15:35:50.417Z,99276.19
2017-11-01T15:38:26.489Z,99283.22
2017-11-01T15:41:01.146Z,99276.92
2017-11-01T15:43:43.761Z,99280.39
2017-11-01T15:46:22.737Z,99279.78
2017-11-01T15:48:57.869Z,99281.16
2017-11-01T15:51:30.871Z,99281.45
2017-11-01T15:54:09.915Z,99278.39
2017-11-01T15:56:41.443Z,99283.22
2017-11-01T15:59:39.876Z,99280.78
2017-11-01T16:02:12.449Z,99283.02
2017-11-01T16:04:44.107Z,99287.47
2017-11-01T16:07:21.832Z,99286.84
2017-11-01T16:09:59.632Z,99286.73
2017-11-01T16:12:31.917Z,99290.42
2017-11-01T16:15:05.681Z,99283.06
2017-11-01T16:17:38.242Z,99283.87
2017-11-01T16:20:12.802Z,99292.62
2017-11-01T16:22:49.684Z,99292.55
2017-11-01T16:25:20.803Z,99300.30
2017-11-01T16:27:57.592Z,99299.87
2017-11-01T16:30:30.420Z,99299.66
2017-11-01T16:33:06.355Z,99309.66
2017-11-01T16:35:40.045Z,99306.16
2017-11-01T16:38:13.346Z,99300.48
2017-11-01T16:40:49.986Z,99293.02
2017-11-01T16:43:25.305Z,99286.81
2017-11-01T16:45:56.563Z,99297.21
2017-11-01T16:48:29.078Z,99280.89
2017-11-01T16:51:00.315Z,99285.91
2017-11-01T16:53:33.319Z,99293.77
2017-11-01T16:56:07.855Z,99285.78
2017-11-01T16:58:41.101Z,99289.68
2017-11-01T17:01:12.514Z,99282.22
2017-11-01T17:03:45.554Z,99269.66
2017-11-01T17:06:18.500Z,99264.47
2017-11-01T17:08:53.972Z,99262.17
2017-11-01T17:11:27.460Z,99269.16
2017-11-01T17:14:01.749Z,99261.14
2017-11-01T17:16:33.808Z,99261.42
2017-11-01T17:19:05.041Z,99257.33
2017-11-01T17:21:36.289Z,99255.01
2017-11-01T17:24:09.094Z,99257.16
2017-11-01T17:26:40.696Z,99247.20
2017-11-01T17:29:14.329Z,99236.64
2017-11-01T17:31:55.986Z,99240.33
2017-11-01T17:37:26.774Z,99254.83
2017-11-01T17:42:52.511Z,99250.25
2017-11-01T17:45:24.049Z,99254.45
2017-11-01T17:47:56.984Z,99255.25
2017-11-01T17:50:28.543Z,99255.61
2017-11-01T17:52:59.981Z,99251.48
2017-11-01T17:55:33.315Z,99248.70
2017-11-01T17:58:07.312Z,99247.25
2017-11-01T18:00:39.825Z,99243.48
2017-11-01T18:03:12.663Z,99241.49
2017-11-01T18:05:45.165Z,99241.25
2017-11-01T18:08:17.788Z,99237.19
2017-11-01T18:10:53.778Z,99240.63
2017-11-01T18:13:31.623Z,99237.43
2017-11-01T18:16:06.132Z,99237.95
2017-11-01T18:18:37.918Z,99235.30
2017-11-01T18:21:10.207Z,99237.86
2017-11-01T18:23:42.294Z,99232.13
2017-11-01T18:26:15.389Z,99229.59
2017-11-01T18:28:49.478Z,99232.73
2017-11-01T18:31:21.812Z,99232.52
2017-11-01T18:33:54.807Z,99228.80
2017-11-01T18:36:26.726Z,99233.91
2017-11-01T18:39:00.128Z,99232.30
2017-11-01T18:41:35.549Z,99242.30
2017-11-01T18:44:08.377Z,99242.37
2017-11-01T18:49:30.515Z,99243.68
2017-11-01T18:52:19.608Z,99237.64
2017-11-01T18:55:13.091Z,99227.80
2017-11-01T18:57:44.222Z,99218.63
2017-11-01T19:00:19.362Z,99212.58
2017-11-01T19:03:01.024Z,99213.05
2017-11-01T19:05:39.198Z,99218.65
2017-11-01T19:08:16.126Z,99222.43
2017-11-01T19:11:15.031Z,99218.59
2017-11-01T19:13:47.698Z,99215.19
2017-11-01T19:16:22.948Z,99208.95
2017-11-01T19:18:59.483Z,99208.73
2017-11-01T19:21:32.468Z,99206.69
2017-11-01T19:24:03.833Z,99196.23
2017-11-01T19:26:35.882Z,99199.22
2017-11-01T19:32:49.730Z,99194.77
2017-11-01T19:35:23.057Z,99198.55
2017-11-01T19:37:54.124Z,99199.75
2017-11-01T19:40:28.386Z,99202.86
2017-11-01T19:42:59.563Z,99195.04
2017-11-01T19:45:33.682Z,99193.13
2017-11-01T19:48:06.781Z,99186.49
2017-11-01T19:50:39.915Z,99185.64
2017-11-01T19:58:16.172Z,99175.94
2017-11-01T20:00:54.130Z,99180.70
2017-11-01T20:03:26.076Z,99172.44
2017-11-01T20:05:57.030Z,99169.45
2017-11-01T20:08:47.661Z,99164.67
2017-11-01T20:11:23.668Z,99160.59
2017-11-01T20:14:33.203Z,99149.15
2017-11-01T20:17:05.683Z,99153.41
2017-11-01T20:19:37.149Z,99161.50
2017-11-01T20:22:14.193Z,99156.84
2017-11-01T20:24:52.169Z,99153.83
2017-11-01T20:27:23.355Z,99149.27
2017-11-01T20:29:59.646Z,99147.98
2017-11-01T20:35:25.718Z,99149.92
2017-11-01T20:37:57.352Z,99150.95
2017-11-01T20:40:29.978Z,99154.45
2017-11-01T20:43:04.142Z,99156.18
2017-11-01T20:45:39.277Z,99161.29
2017-11-01T20:50:59.167Z,99149.28
2017-11-01T20:53:31.924Z,99144.88
2017-11-01T20:56:03.679Z,99146.48
2017-11-01T20:58:34.880Z,99139.39
2017-11-01T21:01:06.796Z,99136.80
2017-11-01T21:03:38.893Z,99134.16
2017-11-01T21:06:14.438Z,99130.44
2017-11-01T21:08:53.341Z,99125.27
2017-11-01T21:11:29.025Z,99121.78
2017-11-01T21:14:05.039Z,99122.51
2017-11-01T21:16:56.982Z,99124.55
2017-11-01T21:19:35.390Z,99112.86
2017-11-01T21:22:26.456Z,99109.59
2017-11-01T21:25:43.839Z,99111.31
2017-11-01T21:28:17.445Z,99114.93
2017-11-01T21:30:55.869Z,99110.83
2017-11-01T21:33:40.641Z,99102.09
2017-11-01T21:36:14.943Z,99100.91
2017-11-01T21:38:48.550Z,99087.14
2017-11-01T21:41:32.214Z,99088.73
2017-11-01T21:44:07.397Z,99090.52
2017-11-01T21:46:47.268Z,99089.02
2017-11-01T21:49:48.757Z,99084.75
2017-11-01T21:52:22.480Z,99080.70
2017-11-01T21:54:54.944Z,99079.63
2017-11-01T21:57:26.672Z,99079.02
2017-11-01T21:59:57.843Z,99080.94
2017-11-01T22:02:33.808Z,99074.16
2017-11-01T22:05:07.982Z,99068.16
2017-11-01T22:07:39.096Z,99067.45
2017-11-01T22:10:11.875Z,99058.89
2017-11-01T22:12:43.207Z,99058.83
2017-11-01T22:15:14.879Z,99054.48
2017-11-01T22:17:46.725Z,99053.36
2017-11-01T22:20:17.717Z,99053.36
2017-11-01T22:22:48.866Z,99047.57
2017-11-01T22:25:23.285Z,99039.36
2017-11-01T22:27:53.882Z,99037.25
2017-11-01T22:30:28.085Z,99037.19
2017-11-01T22:33:03.536Z,99038.14
2017-11-01T22:35:35.418Z,99035.19
2017-11-01T22:38:08.167Z,99031.16
2017-11-01T22:43:19.487Z,99029.41
2017-11-01T22:45:52.468Z,99025.34
2017-11-01T22:48:23.910Z,99027.21
2017-11-01T22:51:02.979Z,99022.45
2017-11-01T22:53:34.690Z,99015.67
2017-11-01T22:56:06.029Z,99017.69
2017-11-01T22:58:37.602Z,99004.53
2017-11-01T23:01:12.087Z,99004.25
2017-11-01T23:03:43.342Z,98994.36
2017-11-01T23:06:15.454Z,98997.66
2017-11-01T23:08:50.288Z,98996.17
2017-11-01T23:11:22.971Z,98995.44
2017-11-01T23:13:55.149Z,98994.10
2017-11-01T23:16:29.290Z,98997.63
2017-11-01T23:19:02.817Z,98999.17
2017-11-01T23:21:34.821Z,98995.01
2017-11-01T23:24:06.473Z,98993.20
2017-11-01T23:26:37.879Z,98994.45
2017-11-01T23:29:11.881Z,98996.74
2017-11-01T23:31:42.946Z,98989.89
2017-11-01T23:34:13.527Z,98986.30
2017-11-01T23:36:44.564Z,98990.26
2017-11-01T23:39:15.843Z,98984.59
2017-11-01T23:41:46.476Z,98968.88
2017-11-01T23:44:17.411Z,98969.95
2017-11-01T23:46:48.553Z,98974.48
2017-11-01T23:49:19.476Z,98963.81
2017-11-01T23:51:52.616Z,98955.27
2017-11-01T23:54:23.604Z,98958.55
2017-11-01T23:56:54.352Z,98952.40
2017-11-01T23:59:25.475Z,98953.22
